createdAt,value
2022-11-26T00:03:19.889Z,65907.28
2022-11-26T00:08:34.136Z,65908.97
2022-11-26T00:13:38.257Z,65911.66
2022-11-26T00:18:42.026Z,65880.00
2022-11-26T00:23:47.349Z,65825.03
2022-11-26T00:28:53.789Z,65903.56
2022-11-26T00:33:57.649Z,65892.59
2022-11-26T00:39:05.331Z,65878.50
2022-11-26T00:44:18.629Z,65861.16
2022-11-26T00:49:22.481Z,65954.25
2022-11-26T00:54:27.901Z,65887.06
2022-11-26T00:59:31.670Z,65842.59
2022-11-26T01:04:35.916Z,65785.91
2022-11-26T01:09:44.178Z,65816.31
2022-11-26T01:14:47.962Z,66005.63
2022-11-26T01:19:51.962Z,65943.31
2022-11-26T01:24:57.177Z,65867.81
2022-11-26T01:30:00.895Z,65854.34
2022-11-26T01:35:04.870Z,65889.28
2022-11-26T01:40:39.804Z,65849.72
2022-11-26T01:45:43.892Z,65765.19
2022-11-26T01:50:58.401Z,65872.09
2022-11-26T01:56:07.811Z,65920.66
2022-11-26T02:01:11.722Z,65895.53
2022-11-26T02:06:20.731Z,65864.69
2022-11-26T02:11:26.601Z,65901.84
2022-11-26T02:16:59.405Z,65842.69
2022-11-26T02:22:14.002Z,65876.28
2022-11-26T02:27:49.733Z,65854.00
2022-11-26T02:33:00.632Z,65838.41
2022-11-26T02:38:08.460Z,65810.09
2022-11-26T02:43:14.101Z,65885.91
2022-11-26T02:48:25.314Z,65880.13
2022-11-26T02:53:33.317Z,65919.13
2022-11-26T02:58:38.079Z,65831.47
2022-11-26T03:03:48.659Z,65762.41
2022-11-26T03:08:54.570Z,65858.72
2022-11-26T03:13:58.164Z,65823.97
2022-11-26T03:19:03.224Z,65840.47
2022-11-26T03:24:07.425Z,65856.03
2022-11-26T03:29:11.118Z,65763.50
2022-11-26T03:34:16.301Z,65766.69
2022-11-26T03:39:20.164Z,65726.75
2022-11-26T03:44:23.914Z,65725.03
2022-11-26T03:49:29.107Z,65832.97
2022-11-26T03:54:32.930Z,65881.09
2022-11-26T03:59:36.712Z,65849.97
2022-11-26T04:04:41.830Z,65839.94
2022-11-26T04:09:45.553Z,65756.13
2022-11-26T04:14:49.350Z,65766.25
2022-11-26T04:19:54.642Z,65848.47
2022-11-26T04:24:58.435Z,65676.53
2022-11-26T04:30:02.244Z,65715.63
2022-11-26T04:35:08.799Z,65782.28
2022-11-26T04:40:13.970Z,65728.78
2022-11-26T04:45:17.999Z,65819.09
2022-11-26T04:50:23.056Z,65790.84
2022-11-26T04:55:26.880Z,65821.66
2022-11-26T05:00:30.690Z,65711.69
2022-11-26T05:05:35.918Z,65748.09
2022-11-26T05:10:39.619Z,65801.34
2022-11-26T05:15:43.311Z,65832.25
2022-11-26T05:20:48.900Z,65788.19
2022-11-26T05:25:52.654Z,65851.69
2022-11-26T05:30:59.856Z,65775.69
2022-11-26T05:36:05.455Z,65845.88
2022-11-26T05:41:09.512Z,65778.88
2022-11-26T05:46:16.292Z,65791.38
2022-11-26T05:51:21.480Z,65777.47
2022-11-26T05:56:25.199Z,65763.03
2022-11-26T06:01:28.952Z,65860.88
2022-11-26T06:06:34.216Z,65746.50
2022-11-26T06:11:37.941Z,65761.97
2022-11-26T06:16:41.864Z,65664.81
2022-11-26T06:21:47.176Z,65649.13
2022-11-26T06:26:51.010Z,65716.50
2022-11-26T06:31:54.843Z,65760.91
2022-11-26T06:37:00.020Z,65797.69
2022-11-26T06:42:03.867Z,65780.59
2022-11-26T06:47:11.064Z,65667.03
2022-11-26T06:52:16.282Z,65746.84
2022-11-26T06:57:20.069Z,65781.22
2022-11-26T07:02:23.977Z,65723.34
2022-11-26T07:07:29.805Z,65793.50
2022-11-26T07:12:33.677Z,65807.31
2022-11-26T07:17:37.818Z,65758.78
2022-11-26T07:22:43.078Z,65832.44
2022-11-26T07:27:47.717Z,65811.78
2022-11-26T07:32:51.416Z,65758.25
2022-11-26T07:37:56.916Z,65775.44
2022-11-26T07:43:00.770Z,65753.00
2022-11-26T07:48:08.776Z,65791.38
2022-11-26T07:53:15.684Z,65824.50
2022-11-26T07:58:19.403Z,65747.56
2022-11-26T08:03:23.457Z,65842.16
2022-11-26T08:08:28.624Z,65812.22
2022-11-26T08:13:32.402Z,65926.47
2022-11-26T08:18:36.689Z,65867.72
2022-11-26T08:23:42.042Z,65924.59
2022-11-26T08:28:46.813Z,65907.28
2022-11-26T08:33:50.611Z,65916.47
2022-11-26T08:38:56.075Z,65805.81
2022-11-26T08:44:08.256Z,65795.03
2022-11-26T08:49:14.976Z,65956.41
2022-11-26T08:54:20.364Z,65939.38
2022-11-26T08:59:24.419Z,65973.59
2022-11-26T09:04:28.363Z,65991.91
2022-11-26T09:09:33.854Z,66026.06
2022-11-26T09:14:40.239Z,65966.22
2022-11-26T09:19:44.459Z,66038.84
2022-11-26T09:24:49.603Z,66135.41
2022-11-26T09:29:53.521Z,66179.97
2022-11-26T09:34:57.300Z,66118.91
2022-11-26T09:40:02.806Z,66126.22
2022-11-26T09:45:19.365Z,66198.09
2022-11-26T09:50:27.564Z,66006.81
2022-11-26T09:55:34.896Z,65993.94
2022-11-26T10:00:41.757Z,66020.63
2022-11-26T10:05:57.898Z,66007.06
2022-11-26T10:11:09.774Z,66020.19
2022-11-26T10:16:26.851Z,65990.81
2022-11-26T10:21:58.042Z,66074.25
2022-11-26T10:27:06.554Z,66044.38
2022-11-26T10:32:15.616Z,65985.94
2022-11-26T10:37:24.212Z,66082.75
2022-11-26T10:42:40.548Z,66030.44
2022-11-26T10:47:44.416Z,66070.53
2022-11-26T10:52:49.576Z,66083.38
2022-11-26T10:58:02.841Z,66080.97
2022-11-26T11:03:17.327Z,65996.63
2022-11-26T11:08:30.960Z,65924.41
2022-11-26T11:13:43.416Z,66007.50
2022-11-26T11:18:52.310Z,66095.16
2022-11-26T11:24:09.187Z,66046.44
2022-11-26T11:29:33.582Z,66138.09
2022-11-26T11:34:41.288Z,66051.34
2022-11-26T11:39:46.110Z,65945.88
2022-11-26T11:44:53.409Z,65904.78
2022-11-26T11:50:22.803Z,65962.91
2022-11-26T11:55:49.071Z,65968.81
2022-11-26T12:01:02.162Z,66009.66
2022-11-26T12:06:18.546Z,66181.31
2022-11-26T12:11:43.696Z,66113.97
2022-11-26T12:16:54.272Z,66182.50
2022-11-26T12:22:03.121Z,66077.13
2022-11-26T12:27:18.342Z,66080.34
2022-11-26T12:32:32.165Z,65991.19
2022-11-26T12:37:40.957Z,66025.53
2022-11-26T12:42:55.143Z,66086.16
2022-11-26T12:48:05.110Z,66106.94
2022-11-26T12:53:17.280Z,66139.16
2022-11-26T12:58:25.436Z,66007.97
2022-11-26T13:03:33.362Z,66064.81
2022-11-26T13:08:47.325Z,66051.78
2022-11-26T13:13:58.735Z,66004.66
2022-11-26T13:19:07.938Z,66059.38
2022-11-26T13:24:27.078Z,66014.38
2022-11-26T13:29:45.211Z,66006.44
2022-11-26T13:35:12.908Z,66125.34
2022-11-26T13:40:45.996Z,66072.13
2022-11-26T13:46:11.679Z,66029.63
2022-11-26T13:51:25.307Z,66005.91
2022-11-26T13:56:32.901Z,65960.88
2022-11-26T14:01:40.445Z,65961.84
2022-11-26T14:07:21.133Z,66012.88
2022-11-26T14:12:45.720Z,66033.22
2022-11-26T14:17:58.424Z,65970.59
2022-11-26T14:23:47.567Z,66048.03
2022-11-26T14:28:52.805Z,65948.91
2022-11-26T14:34:01.246Z,65949.53
2022-11-26T14:39:06.578Z,65941.63
2022-11-26T14:44:14.340Z,65829.34
2022-11-26T14:49:35.312Z,65817.38
2022-11-26T14:54:41.273Z,65862.38
2022-11-26T14:59:57.142Z,65880.00
2022-11-26T15:05:14.034Z,65820.69
2022-11-26T15:10:20.612Z,65843.56
2022-11-26T15:15:25.759Z,65828.16
2022-11-26T15:20:31.911Z,65792.91
2022-11-26T15:25:37.497Z,65822.91
2022-11-26T15:30:41.494Z,65825.50
2022-11-26T15:35:46.968Z,65771.78
2022-11-26T15:40:53.538Z,65788.19
2022-11-26T15:46:01.503Z,65765.19
2022-11-26T15:51:09.148Z,65781.03
2022-11-26T15:56:19.984Z,65832.00
2022-11-26T16:01:27.450Z,65820.16
2022-11-26T16:06:35.522Z,65913.19
2022-11-26T16:11:41.345Z,65818.66
2022-11-26T16:16:45.346Z,65866.72
2022-11-26T16:21:52.816Z,65945.34
2022-11-26T16:26:58.902Z,65918.44
2022-11-26T16:32:05.660Z,65987.63
2022-11-26T16:37:21.965Z,66075.44
2022-11-26T16:42:26.127Z,66047.50
2022-11-26T16:47:33.525Z,66103.72
2022-11-26T16:52:40.744Z,66139.72
2022-11-26T16:57:48.253Z,66024.97
2022-11-26T17:02:52.436Z,65967.81
2022-11-26T17:08:02.411Z,66069.00
2022-11-26T17:13:07.216Z,66002.69
2022-11-26T17:18:18.222Z,65959.16
2022-11-26T17:23:23.619Z,66043.72
2022-11-26T17:28:29.480Z,65934.28
2022-11-26T17:33:34.424Z,66050.09
2022-11-26T17:38:39.806Z,66088.28
2022-11-26T17:43:43.995Z,66040.72
2022-11-26T17:48:51.417Z,66013.75
2022-11-26T17:53:59.680Z,66011.69
2022-11-26T17:59:03.575Z,66078.47
2022-11-26T18:04:07.650Z,66041.06
2022-11-26T18:09:13.032Z,65992.97
2022-11-26T18:14:18.947Z,66015.53
2022-11-26T18:19:24.363Z,65910.06
2022-11-26T18:24:30.267Z,65899.25
2022-11-26T18:29:34.157Z,65916.66
2022-11-26T18:34:38.665Z,65902.66
2022-11-26T18:39:44.467Z,65918.59
2022-11-26T18:44:48.247Z,65956.06
2022-11-26T18:49:52.289Z,65880.75
2022-11-26T18:54:58.618Z,65943.13
2022-11-26T19:00:03.543Z,65794.50
2022-11-26T19:05:09.002Z,65815.34
2022-11-26T19:10:14.487Z,65729.75
2022-11-26T19:15:18.684Z,65775.78
2022-11-26T19:20:22.726Z,65844.19
2022-11-26T19:25:30.215Z,65834.03
2022-11-26T19:30:35.469Z,65865.03
2022-11-26T19:35:40.429Z,65703.25
2022-11-26T19:40:46.328Z,65627.44
2022-11-26T19:45:50.252Z,65668.00
2022-11-26T19:50:56.774Z,65595.44
2022-11-26T19:56:06.172Z,65582.97
2022-11-26T20:01:12.823Z,65625.66
2022-11-26T20:06:19.921Z,65674.41
2022-11-26T20:11:25.543Z,65581.91
2022-11-26T20:16:32.231Z,65570.69
2022-11-26T20:21:36.919Z,65549.56
2022-11-26T20:26:43.525Z,65533.38
2022-11-26T20:31:49.507Z,65535.59
2022-11-26T20:36:53.886Z,65552.13
2022-11-26T20:41:59.289Z,65667.38
2022-11-26T20:47:03.275Z,65566.63
2022-11-26T20:52:07.124Z,65496.69
2022-11-26T20:57:12.278Z,65498.19
2022-11-26T21:02:18.806Z,65512.78
2022-11-26T21:07:23.742Z,65476.34
2022-11-26T21:12:29.254Z,65487.44
2022-11-26T21:17:33.027Z,65497.66
2022-11-26T21:22:39.147Z,65587.44
2022-11-26T21:27:44.539Z,65582.00
2022-11-26T21:32:48.374Z,65592.88
2022-11-26T21:37:52.247Z,65594.72
2022-11-26T21:42:57.439Z,65564.41
2022-11-26T21:48:01.161Z,65588.84
2022-11-26T21:53:05.106Z,65632.16
2022-11-26T21:58:10.401Z,65644.97
2022-11-26T22:03:14.135Z,65662.56
2022-11-26T22:08:17.926Z,65614.56
2022-11-26T22:13:23.320Z,65528.66
2022-11-26T22:18:27.270Z,65538.91
2022-11-26T22:23:31.228Z,65487.00
2022-11-26T22:28:38.581Z,65451.81
2022-11-26T22:33:42.733Z,65449.69
2022-11-26T22:38:47.753Z,65400.34
2022-11-26T22:43:53.372Z,65362.97
2022-11-26T22:48:58.830Z,65334.13
2022-11-26T22:54:05.631Z,65303.34
2022-11-26T22:59:14.730Z,65305.91
2022-11-26T23:04:18.816Z,65297.94
2022-11-26T23:09:22.758Z,65290.47
2022-11-26T23:14:27.907Z,65316.56
2022-11-26T23:19:31.947Z,65336.13
2022-11-26T23:24:36.153Z,65343.69
2022-11-26T23:29:41.593Z,65312.38
2022-11-26T23:34:45.636Z,65299.53
2022-11-26T23:39:49.486Z,65340.50
2022-11-26T23:44:54.638Z,65321.88
2022-11-26T23:50:00.824Z,65273.66
2022-11-26T23:55:05.319Z,65321.34
